Time;durP1;ratioP1;P1;durP2;ratioP2;P2;SDS_P1;SDS_P2;PMS_P1;PMS_P2;Temp;Humidity;BMP_temperature;BMP_pressure;BME280_temperature;BME280_humidity;BME280_pressure;Samples;Min_cycle;Max_cycle;Signal;HPM_P1;HPM_P2
2020/12/09 00:00:48;;;;;;;1999.90;999.90;;;3.90;99.90;;;;;;5082581;28;20066;-89
2020/12/09 00:03:15;;;;;;;1999.90;999.90;;;3.90;99.90;;;;;;5092553;28;20075;-88
2020/12/09 00:05:42;;;;;;;1999.90;999.90;;;3.90;99.90;;;;;;5092872;28;20087;-89
2020/12/09 00:08:09;;;;;;;1999.90;999.90;;;3.90;99.90;;;;;;5093471;28;20108;-89
2020/12/09 00:10:36;;;;;;;1999.90;999.90;;;4.00;99.90;;;;;;5093734;28;20135;-89
2020/12/09 00:13:03;;;;;;;1999.90;999.90;;;4.00;99.90;;;;;;5088239;28;20123;-89
2020/12/09 00:15:30;;;;;;;1999.90;999.90;;;4.00;99.90;;;;;;5090958;28;20066;-89
2020/12/09 00:17:58;;;;;;;1999.90;999.90;;;4.00;99.90;;;;;;5090702;28;20406;-89
2020/12/09 00:20:25;;;;;;;1999.90;999.90;;;4.00;99.90;;;;;;5091414;28;20047;-89
2020/12/09 00:22:52;;;;;;;1999.90;999.90;;;4.00;99.90;;;;;;5093611;28;20060;-90
2020/12/09 00:25:19;;;;;;;1999.90;999.90;;;4.00;99.90;;;;;;5093054;28;20056;-88
2020/12/09 00:27:58;;;;;;;1999.90;999.90;;;4.00;99.90;;;;;;5089388;28;20641;-89
2020/12/09 00:30:25;;;;;;;1999.90;999.90;;;4.00;99.90;;;;;;5096651;28;20052;-89
2020/12/09 00:32:52;;;;;;;1999.90;999.90;;;4.00;99.90;;;;;;5085395;28;20071;-89
2020/12/09 00:35:20;;;;;;;1999.90;999.90;;;4.00;99.90;;;;;;5097135;28;20086;-90
2020/12/09 00:37:47;;;;;;;1999.90;999.90;;;4.00;99.90;;;;;;5094488;28;20514;-89
2020/12/09 00:40:14;;;;;;;1999.90;999.90;;;4.00;99.90;;;;;;5094787;28;20075;-89
2020/12/09 00:42:41;;;;;;;1999.90;999.90;;;4.00;99.90;;;;;;5094389;28;20131;-90
2020/12/09 00:45:08;;;;;;;1999.90;999.90;;;4.00;99.90;;;;;;5096399;28;20135;-89
2020/12/09 00:47:39;;;;;;;1999.90;999.90;;;4.00;99.90;;;;;;5095709;28;20503;-89
2020/12/09 00:52:52;;;;;;;1999.90;999.90;;;4.00;99.90;;;;;;5095569;28;20419;-90
2020/12/09 00:55:19;;;;;;;1999.90;999.90;;;4.00;99.90;;;;;;5095611;28;20131;-89
2020/12/09 00:57:46;;;;;;;1999.90;999.90;;;4.00;99.90;;;;;;5095909;28;20449;-89
2020/12/09 01:00:14;;;;;;;1999.90;999.90;;;4.00;99.90;;;;;;5095244;28;20415;-89
2020/12/09 01:02:41;;;;;;;1999.90;999.90;;;4.00;99.90;;;;;;5095949;28;20050;-89
2020/12/09 01:05:09;;;;;;;1999.90;999.90;;;4.00;99.90;;;;;;5095519;28;20052;-89
2020/12/09 01:07:36;;;;;;;1999.90;999.90;;;4.00;99.90;;;;;;5095565;28;20070;-89
2020/12/09 01:10:06;;;;;;;1999.90;999.90;;;4.00;99.90;;;;;;5095102;28;20113;-89
2020/12/09 01:12:33;;;;;;;1999.90;999.90;;;4.00;99.90;;;;;;5095128;28;20090;-89
2020/12/09 01:15:00;;;;;;;1999.90;999.90;;;4.00;99.90;;;;;;5094937;28;20128;-89
2020/12/09 01:17:27;;;;;;;1999.90;999.90;;;3.90;99.90;;;;;;5094616;28;20048;-89
2020/12/09 01:20:01;;;;;;;1999.90;999.90;;;3.90;99.90;;;;;;5094554;28;20087;-89
2020/12/09 01:22:32;;;;;;;1999.90;999.90;;;4.00;99.90;;;;;;5095523;28;20127;-88
2020/12/09 01:24:59;;;;;;;1999.90;999.90;;;4.00;99.90;;;;;;5095239;28;20139;-89
2020/12/09 01:27:27;;;;;;;1999.90;999.90;;;3.90;99.90;;;;;;5095595;28;20418;-89
2020/12/09 01:29:53;;;;;;;1999.90;999.90;;;4.00;99.90;;;;;;5094985;28;20478;-88
2020/12/09 01:32:21;;;;;;;1999.90;999.90;;;4.00;99.90;;;;;;5095272;28;20068;-89
2020/12/09 01:34:50;;;;;;;1999.90;999.90;;;4.00;99.90;;;;;;5094982;28;20056;-89
2020/12/09 01:37:18;;;;;;;1999.90;999.90;;;4.00;99.90;;;;;;5095053;28;20109;-89
2020/12/09 01:39:45;;;;;;;1999.90;999.90;;;4.00;99.90;;;;;;5093617;28;20052;-89
2020/12/09 01:42:12;;;;;;;1999.90;999.90;;;4.00;99.90;;;;;;5095378;28;20127;-89
2020/12/09 01:44:40;;;;;;;1999.90;999.90;;;4.00;99.90;;;;;;5082474;28;20048;-89
2020/12/09 01:47:08;;;;;;;1999.90;999.90;;;4.00;99.90;;;;;;5095152;28;20704;-89
2020/12/09 01:49:35;;;;;;;1999.90;999.90;;;4.00;99.90;;;;;;5093050;28;20056;-89
2020/12/09 01:52:03;;;;;;;1999.90;999.90;;;4.00;99.90;;;;;;5094965;28;20036;-89
2020/12/09 01:54:30;;;;;;;1999.90;999.90;;;3.90;99.90;;;;;;5094594;28;20050;-89
2020/12/09 01:57:09;;;;;;;1999.90;999.90;;;4.00;99.90;;;;;;5094868;28;20058;-89
2020/12/09 01:59:37;;;;;;;1999.90;999.90;;;3.90;99.90;;;;;;5093834;28;20483;-89
2020/12/09 02:02:07;;;;;;;1999.90;999.90;;;3.90;99.90;;;;;;5094612;28;20431;-89
2020/12/09 02:04:34;;;;;;;1999.90;999.90;;;3.90;99.90;;;;;;5094803;28;20495;-88
2020/12/09 02:07:01;;;;;;;1999.90;999.90;;;4.00;99.90;;;;;;5094944;28;20487;-88
2020/12/09 02:09:28;;;;;;;1999.90;999.90;;;4.00;99.90;;;;;;5094180;28;20084;-88
2020/12/09 02:11:57;;;;;;;1999.90;999.90;;;3.90;99.90;;;;;;5094151;28;20046;-88
2020/12/09 02:14:25;;;;;;;1999.90;999.90;;;3.90;99.90;;;;;;5094036;28;20054;-88
2020/12/09 02:16:53;;;;;;;1999.90;999.90;;;3.90;99.90;;;;;;5094268;28;20064;-88
2020/12/09 02:19:22;;;;;;;1999.90;999.90;;;3.90;99.90;;;;;;5094277;28;20048;-88
2020/12/09 02:21:50;;;;;;;1999.90;999.90;;;3.90;99.90;;;;;;5093942;28;20534;-88
2020/12/09 02:24:17;;;;;;;1999.90;999.90;;;3.90;99.90;;;;;;5094001;28;20044;-88
2020/12/09 02:26:46;;;;;;;1999.90;999.90;;;3.90;99.90;;;;;;5093847;28;20052;-88
2020/12/09 02:29:18;;;;;;;1999.90;999.90;;;3.90;99.90;;;;;;5092710;28;20147;-88
2020/12/09 02:31:45;;;;;;;1999.90;999.90;;;3.90;99.90;;;;;;5094001;28;20044;-88
2020/12/09 02:34:12;;;;;;;1999.90;999.90;;;3.90;99.90;;;;;;5092868;28;20478;-87
2020/12/09 02:36:43;;;;;;;1999.90;999.90;;;3.90;99.90;;;;;;5094004;28;20131;-88
2020/12/09 02:39:11;;;;;;;1999.90;999.90;;;3.90;99.90;;;;;;5093834;28;20132;-87
2020/12/09 02:41:38;;;;;;;1999.90;999.90;;;3.90;99.90;;;;;;5094250;28;20131;-88
2020/12/09 02:44:05;;;;;;;1999.90;999.90;;;3.80;99.90;;;;;;5093176;28;20044;-89
2020/12/09 02:46:32;;;;;;;1999.90;999.90;;;3.80;99.90;;;;;;5093584;28;20140;-88
2020/12/09 02:48:59;;;;;;;1999.90;999.90;;;3.80;99.90;;;;;;5082174;28;20060;-88
2020/12/09 02:51:26;;;;;;;1999.90;999.90;;;3.80;99.90;;;;;;5093544;28;20047;-88
2020/12/09 02:53:53;;;;;;;1999.90;999.90;;;3.80;99.90;;;;;;5093790;28;20143;-88
2020/12/09 02:56:21;;;;;;;1999.90;999.90;;;3.80;99.90;;;;;;5093295;28;20074;-88
2020/12/09 02:58:48;;;;;;;1999.90;999.90;;;3.70;99.90;;;;;;5087023;28;20139;-88
2020/12/09 03:01:15;;;;;;;1999.90;999.90;;;3.70;99.90;;;;;;5092829;28;20730;-89
2020/12/09 03:03:46;;;;;;;1999.90;999.90;;;3.70;99.90;;;;;;5093862;28;20044;-88
2020/12/09 03:06:15;;;;;;;1999.90;999.90;;;3.60;99.90;;;;;;5077286;28;20056;-88
2020/12/09 03:08:43;;;;;;;1999.90;999.90;;;3.60;99.90;;;;;;5093481;28;20072;-88
2020/12/09 03:11:10;;;;;;;1999.90;999.90;;;3.60;99.90;;;;;;5093078;28;20437;-88
2020/12/09 03:13:38;;;;;;;1999.90;999.90;;;3.60;99.90;;;;;;5093389;28;20524;-86
2020/12/09 03:16:05;;;;;;;1999.90;999.90;;;3.60;99.90;;;;;;5092516;28;20127;-85
2020/12/09 03:18:33;;;;;;;1999.90;999.90;;;3.60;99.90;;;;;;5087294;28;20055;-85
2020/12/09 03:21:00;;;;;;;1999.90;999.90;;;3.60;99.90;;;;;;5088873;28;20063;-86
2020/12/09 03:23:27;;;;;;;1999.90;999.90;;;3.60;99.90;;;;;;5092800;28;20123;-85
2020/12/09 03:25:54;;;;;;;1999.90;999.90;;;3.50;99.90;;;;;;5092647;28;20048;-86
2020/12/09 03:28:22;;;;;;;1999.90;999.90;;;3.50;99.90;;;;;;5093428;28;20506;-85
2020/12/09 03:30:50;;;;;;;1999.90;999.90;;;3.50;99.90;;;;;;5092513;28;20048;-85
2020/12/09 03:33:19;;;;;;;1999.90;999.90;;;3.40;99.90;;;;;;5090411;28;20070;-86
2020/12/09 03:35:46;;;;;;;1999.90;999.90;;;3.40;99.90;;;;;;5092872;28;20421;-86
2020/12/09 03:38:14;;;;;;;1999.90;999.90;;;3.40;99.90;;;;;;5092931;28;20055;-86
2020/12/09 03:40:41;;;;;;;1999.90;999.90;;;3.30;99.90;;;;;;5092728;28;20135;-86
2020/12/09 03:43:08;;;;;;;1999.90;999.90;;;3.30;99.90;;;;;;5092920;28;20042;-86
2020/12/09 03:45:35;;;;;;;1999.90;999.90;;;3.20;99.90;;;;;;5092993;28;20064;-86
2020/12/09 03:48:03;;;;;;;1999.90;999.90;;;3.20;99.90;;;;;;5092310;28;20139;-85
2020/12/09 03:50:31;;;;;;;1999.90;999.90;;;3.20;99.90;;;;;;5092778;28;20052;-86
2020/12/09 03:52:58;;;;;;;1999.90;999.90;;;3.10;99.90;;;;;;5092570;28;20487;-86
2020/12/09 03:55:24;;;;;;;1999.90;999.90;;;3.10;99.90;;;;;;5092489;28;20075;-85
2020/12/09 03:57:52;;;;;;;1999.90;999.90;;;3.00;99.90;;;;;;5092592;28;20336;-85
2020/12/09 04:00:19;;;;;;;1999.90;999.90;;;3.00;99.90;;;;;;5092495;28;20076;-86
2020/12/09 04:02:47;;;;;;;1999.90;999.90;;;2.90;99.90;;;;;;5093861;28;20044;-86
2020/12/09 04:05:15;;;;;;;1999.90;999.90;;;2.90;99.90;;;;;;5094748;28;20071;-85
2020/12/09 04:07:41;;;;;;;1999.90;999.90;;;2.90;99.90;;;;;;5095904;28;20059;-86
2020/12/09 04:10:09;;;;;;;1999.90;999.90;;;2.80;99.90;;;;;;5096769;28;20052;-85
2020/12/09 04:12:36;;;;;;;1999.90;999.90;;;2.70;99.90;;;;;;5096709;28;20118;-86
2020/12/09 04:15:04;;;;;;;1999.90;999.90;;;2.70;99.90;;;;;;5096493;28;20056;-86
2020/12/09 04:17:31;;;;;;;1999.90;999.90;;;2.60;99.90;;;;;;5096273;28;20179;-85
2020/12/09 04:19:58;;;;;;;1999.90;999.90;;;2.60;99.90;;;;;;5085473;28;20071;-86
2020/12/09 04:22:25;;;;;;;1999.90;999.90;;;2.50;99.90;;;;;;5096375;28;20505;-86
2020/12/09 04:24:55;;;;;;;1999.90;999.90;;;2.50;99.90;;;;;;5094863;28;20461;-86
2020/12/09 04:27:22;;;;;;;1999.90;999.90;;;2.50;99.90;;;;;;5096616;28;20055;-86
2020/12/09 04:29:49;;;;;;;1999.90;999.90;;;2.40;99.90;;;;;;5094768;28;20459;-86
2020/12/09 04:32:16;;;;;;;1999.90;999.90;;;2.40;99.90;;;;;;5095623;28;20052;-86
2020/12/09 04:34:44;;;;;;;1999.90;999.90;;;2.30;99.90;;;;;;5096450;28;20132;-86
2020/12/09 04:37:11;;;;;;;1999.90;999.90;;;2.30;99.90;;;;;;5096350;28;20221;-86
2020/12/09 04:39:40;;;;;;;1999.90;999.90;;;2.30;99.90;;;;;;5096630;28;20108;-86
2020/12/09 04:42:07;;;;;;;1999.90;999.90;;;2.20;99.90;;;;;;5096839;28;20040;-86
2020/12/09 04:44:34;;;;;;;1999.90;999.90;;;2.20;99.90;;;;;;5095808;28;20048;-87
2020/12/09 04:47:03;;;;;;;1999.90;999.90;;;2.10;99.90;;;;;;5095339;28;20131;-86
2020/12/09 04:49:40;;;;;;;1999.90;999.90;;;2.10;99.90;;;;;;5095953;28;20047;-88
2020/12/09 04:52:26;;;;;;;1999.90;999.90;;;2.10;99.90;;;;;;5094121;28;20046;-86
2020/12/09 04:55:04;;;;;;;1999.90;999.90;;;2.00;99.90;;;;;;5095263;28;20101;-87
2020/12/09 04:57:44;;;;;;;1999.90;999.90;;;2.00;99.90;;;;;;5083866;28;20127;-87
2020/12/09 05:00:12;;;;;;;1999.90;999.90;;;2.00;99.90;;;;;;5093872;28;20105;-87
2020/12/09 05:02:44;;;;;;;1999.90;999.90;;;1.90;99.90;;;;;;5081809;28;20076;-88
2020/12/09 05:05:13;;;;;;;1999.90;999.90;;;1.90;99.90;;;;;;5093947;28;20425;-87
2020/12/09 05:07:46;;;;;;;1999.90;999.90;;;1.90;99.90;;;;;;5094042;28;20073;-86
2020/12/09 05:10:16;;;;;;;1999.90;999.90;;;1.90;99.90;;;;;;5095198;28;20106;-87
2020/12/09 05:12:44;;;;;;;1999.90;999.90;;;1.90;99.90;;;;;;5094956;28;20790;-87
2020/12/09 05:15:18;;;;;;;1999.90;999.90;;;1.90;99.90;;;;;;5095114;28;20132;-87
2020/12/09 05:18:02;;;;;;;1999.90;999.90;;;1.90;99.90;;;;;;5094867;28;20554;-87
2020/12/09 05:20:34;;;;;;;1999.90;999.90;;;1.90;99.90;;;;;;5088419;28;20048;-87
2020/12/09 05:23:02;;;;;;;1999.90;999.90;;;1.90;99.90;;;;;;5095187;28;20056;-86
2020/12/09 05:25:31;;;;;;;1999.90;999.90;;;1.90;99.90;;;;;;5095510;28;20058;-86
2020/12/09 05:27:59;;;;;;;1999.90;999.90;;;1.90;99.90;;;;;;5095052;28;20047;-87
2020/12/09 05:30:43;;;;;;;1999.90;999.90;;;1.90;99.90;;;;;;5085974;28;20052;-85
2020/12/09 05:33:12;;;;;;;1999.90;999.90;;;1.90;99.90;;;;;;5094985;28;20051;-86
2020/12/09 05:35:39;;;;;;;1999.90;999.90;;;2.00;99.90;;;;;;5095499;28;20147;-87
2020/12/09 05:38:12;;;;;;;1999.90;999.90;;;1.90;99.90;;;;;;5080680;28;20048;-87
2020/12/09 05:40:41;;;;;;;1999.90;999.90;;;1.90;99.90;;;;;;5095189;28;20123;-86
2020/12/09 05:43:08;;;;;;;1999.90;999.90;;;1.90;99.90;;;;;;5095097;28;20048;-86
2020/12/09 05:45:35;;;;;;;1999.90;999.90;;;1.90;99.90;;;;;;5094976;28;20048;-87
2020/12/09 05:48:16;;;;;;;1999.90;999.90;;;1.90;99.90;;;;;;5094573;28;20055;-86
2020/12/09 05:50:51;;;;;;;1999.90;999.90;;;1.90;99.90;;;;;;5084959;28;20505;-87
2020/12/09 05:53:20;;;;;;;1999.90;999.90;;;1.90;99.90;;;;;;5094451;28;20040;-86
2020/12/09 05:55:48;;;;;;;1999.90;999.90;;;1.90;99.90;;;;;;5095159;28;20055;-87
2020/12/09 05:58:28;;;;;;;1999.90;999.90;;;2.00;99.90;;;;;;5094801;28;20056;-85
2020/12/09 06:01:06;;;;;;;1999.90;999.90;;;1.90;99.90;;;;;;5083420;28;20561;-85
2020/12/09 06:03:34;;;;;;;1999.90;999.90;;;1.90;99.90;;;;;;5094327;28;20047;-87
2020/12/09 06:06:13;;;;;;;1999.90;999.90;;;1.90;99.90;;;;;;5085408;28;20066;-86
2020/12/09 06:08:42;;;;;;;1999.90;999.90;;;1.90;99.90;;;;;;5093994;28;20052;-86
2020/12/09 06:11:11;;;;;;;1999.90;999.90;;;1.90;99.90;;;;;;5085432;28;20431;-86
2020/12/09 06:13:38;;;;;;;1999.90;999.90;;;1.90;99.90;;;;;;5083731;28;20126;-87
2020/12/09 06:16:07;;;;;;;1999.90;999.90;;;1.90;99.90;;;;;;5094152;28;20127;-86
2020/12/09 06:18:36;;;;;;;1999.90;999.90;;;1.90;99.90;;;;;;5092350;28;20421;-87
2020/12/09 06:21:04;;;;;;;1999.90;999.90;;;1.90;99.90;;;;;;5094043;28;20055;-87
2020/12/09 06:23:32;;;;;;;1999.90;999.90;;;1.90;99.90;;;;;;5093853;28;20126;-87
2020/12/09 06:26:00;;;;;;;1999.90;999.90;;;1.90;99.90;;;;;;5092088;28;20508;-86
2020/12/09 06:28:30;;;;;;;1999.90;999.90;;;1.90;99.90;;;;;;5093894;28;20040;-87
2020/12/09 06:30:59;;;;;;;1999.90;999.90;;;1.90;99.90;;;;;;5093570;28;20083;-86
2020/12/09 06:33:36;;;;;;;1999.90;999.90;;;1.90;99.90;;;;;;5093648;28;20160;-86
2020/12/09 06:36:14;;;;;;;1999.90;999.90;;;1.90;99.90;;;;;;5093069;28;20079;-86
2020/12/09 06:39:01;;;;;;;1999.90;999.90;;;1.90;99.90;;;;;;5093863;28;20048;-87
2020/12/09 06:41:28;;;;;;;1999.90;999.90;;;2.00;99.90;;;;;;5093309;28;20355;-86
2020/12/09 06:44:04;;;;;;;1999.90;999.90;;;1.90;99.90;;;;;;5093862;28;20126;-87
2020/12/09 06:46:45;;;;;;;1999.90;999.90;;;1.90;99.90;;;;;;5093107;28;20054;-87
2020/12/09 06:49:35;;;;;;;1999.90;999.90;;;1.90;99.90;;;;;;5082314;28;20052;-86
2020/12/09 06:52:03;;;;;;;1999.90;999.90;;;2.00;99.90;;;;;;5092879;28;20116;-87
2020/12/09 06:54:41;;;;;;;1999.90;999.90;;;1.90;99.90;;;;;;5093352;28;20139;-86
2020/12/09 06:57:12;;;;;;;1999.90;999.90;;;1.80;99.90;;;;;;5092674;28;20044;-85
2020/12/09 06:59:40;;;;;;;1999.90;999.90;;;1.80;99.90;;;;;;5092711;28;20048;-86
2020/12/09 07:02:08;;;;;;;1999.90;999.90;;;1.80;99.90;;;;;;5092659;28;20131;-86
2020/12/09 07:05:04;;;;;;;1999.90;999.90;;;1.80;99.90;;;;;;5092351;28;20234;-86
2020/12/09 07:07:37;;;;;;;1999.90;999.90;;;1.80;99.90;;;;;;5091592;28;20062;-86
2020/12/09 07:10:10;;;;;;;1999.90;999.90;;;1.80;99.90;;;;;;5091440;28;20051;-86
2020/12/09 07:12:37;;;;;;;1999.90;999.90;;;1.80;99.90;;;;;;5092651;28;20048;-86
2020/12/09 07:15:05;;;;;;;1999.90;999.90;;;1.80;99.90;;;;;;5092914;28;20048;-86
2020/12/09 07:17:32;;;;;;;1999.90;999.90;;;1.80;99.90;;;;;;5093506;28;20394;-86
2020/12/09 07:20:04;;;;;;;1999.90;999.90;;;1.80;99.90;;;;;;5092683;28;20510;-86
2020/12/09 07:22:31;;;;;;;1999.90;999.90;;;1.80;99.90;;;;;;5087528;28;20040;-86
2020/12/09 07:24:59;;;;;;;1999.90;999.90;;;1.80;99.90;;;;;;5092916;28;20409;-86
2020/12/09 07:27:28;;;;;;;1999.90;999.90;;;1.80;99.90;;;;;;5092697;28;20563;-86
2020/12/09 07:29:58;;;;;;;1999.90;999.90;;;1.80;99.90;;;;;;5092598;28;20074;-86
2020/12/09 07:32:26;;;;;;;1999.90;999.90;;;1.90;99.90;;;;;;5091322;28;20072;-86
2020/12/09 07:34:55;;;;;;;1999.90;999.90;;;1.90;99.90;;;;;;5088854;28;20059;-86
2020/12/09 07:37:24;;;;;;;1999.90;999.90;;;1.90;99.90;;;;;;5092156;28;20717;-86
2020/12/09 07:39:53;;;;;;;1999.90;999.90;;;1.90;99.90;;;;;;5086904;28;20098;-86
2020/12/09 07:42:21;;;;;;;1999.90;999.90;;;1.90;99.90;;;;;;5084551;28;20079;-86
2020/12/09 07:44:50;;;;;;;1999.90;999.90;;;1.90;99.90;;;;;;5092366;28;20059;-85
2020/12/09 07:47:25;;;;;;;1999.90;999.90;;;1.90;99.90;;;;;;5092688;28;20071;-86
2020/12/09 07:49:55;;;;;;;1999.90;999.90;;;2.00;99.90;;;;;;5092640;28;20144;-86
2020/12/09 07:52:35;;;;;;;1999.90;999.90;;;1.90;99.90;;;;;;5092272;28;20048;-86
2020/12/09 07:55:08;;;;;;;1999.90;999.90;;;1.90;99.90;;;;;;5092208;28;20079;-86
2020/12/09 07:57:36;;;;;;;1999.90;999.90;;;1.90;99.90;;;;;;5091578;28;20144;-83
2020/12/09 08:00:07;;;;;;;1999.90;999.90;;;1.90;99.90;;;;;;5091514;28;20135;-84
2020/12/09 08:02:39;;;;;;;1999.90;999.90;;;1.90;99.90;;;;;;5086116;28;20130;-83
2020/12/09 08:05:13;;;;;;;1999.90;999.90;;;1.90;99.90;;;;;;5090409;28;20241;-82
2020/12/09 08:07:47;;;;;;;1999.90;999.90;;;1.90;99.90;;;;;;5090592;28;20127;-83
2020/12/09 08:10:16;;;;;;;1999.90;999.90;;;2.00;99.90;;;;;;5096403;28;20090;-83
2020/12/09 08:12:43;;;;;;;1999.90;999.90;;;1.90;99.90;;;;;;5084874;28;20044;-83
2020/12/09 08:15:11;;;;;;;1999.90;999.90;;;2.00;99.90;;;;;;5081937;28;20691;-84
2020/12/09 08:17:38;;;;;;;1999.90;999.90;;;1.90;99.90;;;;;;5091072;28;20113;-91
2020/12/09 08:20:07;;;;;;;1999.90;999.90;;;1.90;99.90;;;;;;5091539;28;20048;-84
2020/12/09 08:22:50;;;;;;;1999.90;999.90;;;2.00;99.90;;;;;;5085052;28;20446;-85
2020/12/09 08:25:17;;;;;;;1999.90;999.90;;;2.00;99.90;;;;;;5085641;28;20498;-86
2020/12/09 08:27:46;;;;;;;1999.90;999.90;;;2.00;99.90;;;;;;5090712;28;20064;-83
2020/12/09 08:30:25;;;;;;;1999.90;999.90;;;1.90;99.90;;;;;;5091103;28;20063;-83
2020/12/09 08:33:20;;;;;;;1999.90;999.90;;;2.00;99.90;;;;;;5085369;28;20041;-85
2020/12/09 08:35:57;;;;;;;1999.90;999.90;;;2.00;99.90;;;;;;5084619;28;20060;-85
2020/12/09 08:38:30;;;;;;;1999.90;999.90;;;2.00;99.90;;;;;;5092072;28;20539;-86
2020/12/09 08:41:12;;;;;;;1999.90;999.90;;;1.90;99.90;;;;;;5088169;28;20056;-85
2020/12/09 08:43:41;;;;;;;1999.90;999.90;;;2.00;99.90;;;;;;5091966;28;20048;-85
2020/12/09 08:46:11;;;;;;;1999.90;999.90;;;1.90;99.90;;;;;;5092217;28;20082;-86
2020/12/09 08:48:39;;;;;;;1999.90;999.90;;;2.00;99.90;;;;;;5092100;28;20044;-85
2020/12/09 08:51:07;;;;;;;1999.90;999.90;;;1.90;99.90;;;;;;5095767;28;20047;-86
2020/12/09 08:53:35;;;;;;;1999.90;999.90;;;1.90;99.90;;;;;;5095313;28;20048;-86
2020/12/09 08:56:02;;;;;;;1999.90;999.90;;;1.90;99.90;;;;;;5095540;28;20101;-85
2020/12/09 08:58:29;;;;;;;1999.90;999.90;;;1.90;99.90;;;;;;5094951;28;20079;-85
2020/12/09 09:00:56;;;;;;;1999.90;999.90;;;1.80;99.90;;;;;;5094952;28;20155;-85
2020/12/09 09:03:25;;;;;;;1999.90;999.90;;;1.80;99.90;;;;;;5095235;28;20075;-85
2020/12/09 09:05:53;;;;;;;1999.90;999.90;;;1.80;99.90;;;;;;5095134;28;20131;-86
2020/12/09 09:08:22;;;;;;;1999.90;999.90;;;1.80;99.90;;;;;;5095100;28;20059;-86
2020/12/09 09:10:50;;;;;;;1999.90;999.90;;;1.80;99.90;;;;;;5094698;28;20075;-87
2020/12/09 09:13:17;;;;;;;1999.90;999.90;;;1.80;99.90;;;;;;5094808;28;20059;-86
2020/12/09 09:15:44;;;;;;;1999.90;999.90;;;1.80;99.90;;;;;;5094262;28;20278;-86
2020/12/09 09:18:11;;;;;;;1999.90;999.90;;;1.80;99.90;;;;;;5091741;28;20056;-86
2020/12/09 09:20:38;;;;;;;1999.90;999.90;;;1.90;99.90;;;;;;5096277;28;20092;-86
2020/12/09 09:23:06;;;;;;;1999.90;999.90;;;1.90;99.90;;;;;;5094970;28;20082;-86
2020/12/09 09:25:35;;;;;;;1999.90;999.90;;;1.90;99.90;;;;;;5094218;28;20101;-86
2020/12/09 09:28:02;;;;;;;1999.90;999.90;;;1.90;99.90;;;;;;5094354;28;20048;-86
2020/12/09 09:30:30;;;;;;;1999.90;999.90;;;1.90;99.90;;;;;;5094712;28;20415;-86
2020/12/09 09:32:57;;;;;;;1999.90;999.90;;;1.90;99.90;;;;;;5089550;28;20044;-88
2020/12/09 09:35:24;;;;;;;1999.90;999.90;;;1.90;99.90;;;;;;5094728;28;20044;-88
2020/12/09 09:37:51;;;;;;;1999.90;999.90;;;1.90;99.90;;;;;;5094412;28;20079;-87
2020/12/09 09:40:18;;;;;;;1999.90;999.90;;;1.90;99.90;;;;;;5092299;28;20056;-87
2020/12/09 09:42:50;;;;;;;1999.90;999.90;;;1.90;99.90;;;;;;5089946;28;20127;-88
2020/12/09 09:45:18;;;;;;;1999.90;999.90;;;1.90;99.90;;;;;;5095123;28;20081;-89
2020/12/09 09:47:44;;;;;;;1999.90;999.90;;;1.90;99.90;;;;;;5095377;28;20051;-88
2020/12/09 09:50:12;;;;;;;1999.90;999.90;;;1.90;99.90;;;;;;5092501;28;20114;-88
2020/12/09 09:52:40;;;;;;;1999.90;999.90;;;1.90;99.90;;;;;;5094874;28;20044;-87
2020/12/09 09:55:10;;;;;;;1999.90;999.90;;;1.90;99.90;;;;;;5094165;28;20545;-88
2020/12/09 09:57:37;;;;;;;1999.90;999.90;;;1.90;99.90;;;;;;5094764;28;20052;-87
2020/12/09 10:00:10;;;;;;;1999.90;999.90;;;1.90;99.90;;;;;;5092218;28;20068;-88
2020/12/09 10:02:38;;;;;;;1999.90;999.90;;;1.90;99.90;;;;;;5092874;28;20176;-87
2020/12/09 10:05:05;;;;;;;1999.90;999.90;;;1.90;99.90;;;;;;5094210;28;20071;-87
2020/12/09 10:07:32;;;;;;;1999.90;999.90;;;1.90;99.90;;;;;;5093938;28;20047;-88
2020/12/09 10:10:03;;;;;;;1999.90;999.90;;;1.90;99.90;;;;;;5094295;28;20052;-87
2020/12/09 10:12:31;;;;;;;1999.90;999.90;;;1.90;99.90;;;;;;5093054;28;20113;-88
2020/12/09 10:14:59;;;;;;;1999.90;999.90;;;1.80;99.90;;;;;;5094010;28;20805;-87
2020/12/09 10:17:26;;;;;;;1999.90;999.90;;;1.80;99.90;;;;;;5091476;28;20047;-87
2020/12/09 10:19:54;;;;;;;1999.90;999.90;;;1.90;99.90;;;;;;5090865;28;20048;-85
2020/12/09 10:22:23;;;;;;;1999.90;999.90;;;1.90;99.90;;;;;;5093430;28;20469;-86
2020/12/09 10:24:50;;;;;;;1999.90;999.90;;;1.90;99.90;;;;;;5093093;28;20044;-86
2020/12/09 10:27:17;;;;;;;1999.90;999.90;;;2.00;99.90;;;;;;5093277;28;20551;-86
2020/12/09 10:29:44;;;;;;;1999.90;999.90;;;2.00;99.90;;;;;;5093457;28;20468;-86
2020/12/09 10:32:11;;;;;;;1999.90;999.90;;;1.90;99.90;;;;;;5092374;28;20135;-87
2020/12/09 10:34:40;;;;;;;1999.90;999.90;;;2.00;99.90;;;;;;5092723;28;20052;-86
2020/12/09 10:37:09;;;;;;;1999.90;999.90;;;2.00;99.90;;;;;;5094215;28;20718;-86
2020/12/09 10:39:37;;;;;;;1999.90;999.90;;;2.00;99.90;;;;;;5088146;28;20122;-86
2020/12/09 10:42:04;;;;;;;1999.90;999.90;;;2.00;99.90;;;;;;5093351;28;20131;-88
2020/12/09 10:44:31;;;;;;;1999.90;999.90;;;2.00;99.90;;;;;;5093348;28;20078;-89
2020/12/09 10:46:58;;;;;;;1999.90;999.90;;;2.00;99.90;;;;;;5093321;28;20116;-88
2020/12/09 10:49:31;;;;;;;1999.90;999.90;;;2.00;99.90;;;;;;5092899;28;20089;-89
2020/12/09 10:52:00;;;;;;;1999.90;999.90;;;2.00;99.90;;;;;;5093261;28;20131;-88
2020/12/09 10:54:27;;;;;;;1999.90;999.90;;;2.00;99.90;;;;;;5093149;28;20097;-88
2020/12/09 10:57:09;;;;;;;1999.90;999.90;;;2.10;99.90;;;;;;5092500;28;20075;-88
2020/12/09 10:59:36;;;;;;;1999.90;999.90;;;2.00;99.90;;;;;;5093235;28;20522;-89
2020/12/09 11:02:03;;;;;;;1999.90;999.90;;;2.10;99.90;;;;;;5092875;28;20082;-88
2020/12/09 11:04:31;;;;;;;1999.90;999.90;;;2.10;99.90;;;;;;5093737;28;20047;-88
2020/12/09 11:07:05;;;;;;;1999.90;999.90;;;2.10;99.90;;;;;;5090761;28;20048;-88
2020/12/09 11:09:32;;;;;;;1999.90;999.90;;;2.10;99.90;;;;;;5091984;28;20051;-89
2020/12/09 11:11:59;;;;;;;1999.90;999.90;;;2.10;99.90;;;;;;5093274;28;20052;-89
2020/12/09 11:14:26;;;;;;;1999.90;999.90;;;2.10;99.90;;;;;;5093222;28;20067;-89
2020/12/09 11:16:54;;;;;;;1999.90;999.90;;;2.10;99.90;;;;;;5092984;28;20056;-89
2020/12/09 11:19:21;;;;;;;1999.90;999.90;;;2.10;99.90;;;;;;5091295;28;20075;-88
2020/12/09 11:21:53;;;;;;;1999.90;999.90;;;2.10;99.90;;;;;;5092065;28;20784;-89
2020/12/09 11:24:21;;;;;;;1999.90;999.90;;;2.10;99.90;;;;;;5092910;28;20059;-89
2020/12/09 11:26:49;;;;;;;1999.90;999.90;;;2.20;99.90;;;;;;5093007;28;20048;-88
2020/12/09 11:29:16;;;;;;;1999.90;999.90;;;2.20;99.90;;;;;;5087713;28;20077;-89
2020/12/09 11:31:43;;;;;;;1999.90;999.90;;;2.20;99.90;;;;;;5092866;28;20052;-88
2020/12/09 11:34:10;;;;;;;1999.90;999.90;;;2.20;99.90;;;;;;5092594;28;20036;-88
2020/12/09 11:36:37;;;;;;;1999.90;999.90;;;2.20;99.90;;;;;;5090053;28;20043;-88
2020/12/09 11:39:05;;;;;;;1999.90;999.90;;;2.20;99.90;;;;;;5092796;28;20059;-89
2020/12/09 11:41:34;;;;;;;1999.90;999.90;;;2.20;99.90;;;;;;5091660;28;20076;-88
2020/12/09 11:44:02;;;;;;;1999.90;999.90;;;2.20;99.90;;;;;;5089171;28;20083;-86
2020/12/09 11:46:29;;;;;;;1999.90;999.90;;;2.20;99.90;;;;;;5091483;28;20052;-84
2020/12/09 11:48:57;;;;;;;1999.90;999.90;;;2.20;99.90;;;;;;5079087;28;20047;-84
2020/12/09 11:51:26;;;;;;;1999.90;999.90;;;2.30;99.90;;;;;;5091885;28;20127;-84
2020/12/09 11:53:53;;;;;;;1999.90;999.90;;;2.20;99.90;;;;;;5091384;28;20055;-84
2020/12/09 11:56:21;;;;;;;1999.90;999.90;;;2.30;99.90;;;;;;5092247;28;20133;-84
2020/12/09 11:58:50;;;;;;;1999.90;999.90;;;2.20;99.90;;;;;;5089485;28;20080;-84
2020/12/09 12:01:17;;;;;;;1999.90;999.90;;;2.20;99.90;;;;;;5091446;28;20143;-84
2020/12/09 12:03:44;;;;;;;1999.90;999.90;;;2.20;99.90;;;;;;5091695;28;20113;-84
2020/12/09 12:06:19;;;;;;;1999.90;999.90;;;2.20;99.90;;;;;;5091652;28;20193;-84
2020/12/09 12:08:46;;;;;;;1999.90;999.90;;;2.10;99.90;;;;;;5091160;28;20139;-84
2020/12/09 12:11:15;;;;;;;1999.90;999.90;;;2.10;99.90;;;;;;5091248;28;20051;-84
2020/12/09 12:13:43;;;;;;;1999.90;999.90;;;2.10;99.90;;;;;;5089039;28;20047;-84
2020/12/09 12:16:19;;;;;;;1999.90;999.90;;;2.10;99.90;;;;;;5091155;28;20447;-84
2020/12/09 12:18:47;;;;;;;1999.90;999.90;;;2.10;99.90;;;;;;5088607;28;20102;-83
2020/12/09 12:21:15;;;;;;;1999.90;999.90;;;2.10;99.90;;;;;;5090878;28;20054;-84